Time;durP1;ratioP1;P1;durP2;ratioP2;P2;SDS_P1;SDS_P2;PMS_P1;PMS_P2;Temp;Humidity;BMP_temperature;BMP_pressure;BME280_temperature;BME280_humidity;BME280_pressure;Samples;Min_cycle;Max_cycle;Signal;HPM_P1;HPM_P2
2021/01/12 00:02:26;;;;;;;22.55;9.65;;;;;;;;;;5097769;28;20219;-50
2021/01/12 00:04:54;;;;;;;10.27;8.27;;;;;;;;;;5114322;28;20317;-54
2021/01/12 00:07:21;;;;;;;14.20;8.38;;;;;;;;;;5123454;28;20224;-52
2021/01/12 00:09:58;;;;;;;9.50;7.38;;;;;;;;;;5119983;28;20179;-54
2021/01/12 00:12:27;;;;;;;18.80;11.35;;;;;;;;;;5126566;28;20191;-52
2021/01/12 00:14:55;;;;;;;14.07;8.50;;;;;;;;;;5124922;28;20278;-56
2021/01/12 00:17:23;;;;;;;10.70;7.07;;;;;;;;;;5127021;28;20331;-57
2021/01/12 00:19:55;;;;;;;14.30;7.85;;;;;;;;;;5126660;28;20207;-52
2021/01/12 00:22:22;;;;;;;13.10;8.88;;;;;;;;;;5103357;28;20196;-56
2021/01/12 00:24:53;;;;;;;11.73;7.78;;;;;;;;;;5117959;28;20206;-58
2021/01/12 00:27:22;;;;;;;12.60;8.15;;;;;;;;;;5134862;28;20244;-56
2021/01/12 00:30:00;;;;;;;10.70;8.10;;;;;;;;;;5125837;28;20204;-54
2021/01/12 00:32:31;;;;;;;11.77;6.65;;;;;;;;;;5126565;28;20209;-50
2021/01/12 00:35:08;;;;;;;9.48;6.63;;;;;;;;;;5126579;28;20197;-53
2021/01/12 00:37:45;;;;;;;10.63;6.88;;;;;;;;;;5132725;28;20198;-53
2021/01/12 00:40:17;;;;;;;9.23;7.35;;;;;;;;;;5127781;28;20196;-52
2021/01/12 00:42:54;;;;;;;10.90;7.00;;;;;;;;;;5133913;28;20229;-58
2021/01/12 00:45:21;;;;;;;10.48;6.68;;;;;;;;;;5131434;28;20183;-49
2021/01/12 00:47:50;;;;;;;9.88;6.70;;;;;;;;;;5131905;28;20235;-53
2021/01/12 00:50:28;;;;;;;8.27;6.65;;;;;;;;;;5131052;28;20251;-53
2021/01/12 00:52:55;;;;;;;9.45;5.78;;;;;;;;;;5130784;28;20306;-50
2021/01/12 00:55:21;;;;;;;7.18;5.22;;;;;;;;;;5126557;28;20265;-48
2021/01/12 00:57:58;;;;;;;8.15;6.30;;;;;;;;;;5134193;28;20179;-51
2021/01/12 01:00:33;;;;;;;7.80;5.10;;;;;;;;;;5121813;28;20224;-49
2021/01/12 01:03:01;;;;;;;8.93;5.03;;;;;;;;;;5095765;28;20200;-53
2021/01/12 01:05:31;;;;;;;7.00;5.05;;;;;;;;;;5097066;28;20270;-53
2021/01/12 01:08:14;;;;;;;8.27;5.47;;;;;;;;;;5097064;28;20231;-53
2021/01/12 01:10:43;;;;;;;7.22;4.70;;;;;;;;;;5089912;28;20292;-53
2021/01/12 01:13:15;;;;;;;8.38;5.18;;;;;;;;;;5079119;28;20338;-50
2021/01/12 01:15:44;;;;;;;12.18;6.18;;;;;;;;;;5077381;28;20228;-58
2021/01/12 01:18:11;;;;;;;6.70;5.60;;;;;;;;;;5086030;28;20208;-48
2021/01/12 01:20:42;;;;;;;7.72;5.35;;;;;;;;;;5086121;28;20204;-57
2021/01/12 01:23:09;;;;;;;7.75;5.20;;;;;;;;;;5089112;28;20479;-51
2021/01/12 01:25:39;;;;;;;5.22;3.45;;;;;;;;;;5095208;28;20188;-56
2021/01/12 01:28:13;;;;;;;7.07;4.85;;;;;;;;;;5068975;28;20233;-51
2021/01/12 01:30:41;;;;;;;8.90;4.82;;;;;;;;;;5076952;28;20205;-54
2021/01/12 01:33:15;;;;;;;5.95;4.32;;;;;;;;;;5075971;28;20201;-48
2021/01/12 01:35:52;;;;;;;5.95;3.55;;;;;;;;;;5076377;28;20198;-51
2021/01/12 01:38:32;;;;;;;7.78;4.57;;;;;;;;;;5094243;28;20252;-50
2021/01/12 01:43:37;;;;;;;4.90;4.10;;;;;;;;;;5095794;28;20280;-49
2021/01/12 01:46:04;;;;;;;6.60;4.55;;;;;;;;;;5095881;28;20205;-55
2021/01/12 01:48:38;;;;;;;6.03;4.50;;;;;;;;;;5094528;28;20246;-56
2021/01/12 01:51:08;;;;;;;6.93;4.75;;;;;;;;;;5094655;28;20205;-47
2021/01/12 01:53:35;;;;;;;6.85;4.55;;;;;;;;;;5095841;28;20301;-56
2021/01/12 01:56:03;;;;;;;8.10;4.68;;;;;;;;;;5097120;28;20202;-52
2021/01/12 01:58:39;;;;;;;7.15;3.88;;;;;;;;;;5096842;28;20211;-52
2021/01/12 02:01:20;;;;;;;5.65;4.15;;;;;;;;;;5096137;28;20298;-57
2021/01/12 02:03:50;;;;;;;5.55;3.85;;;;;;;;;;5088630;28;20216;-52
2021/01/12 02:06:28;;;;;;;6.50;4.78;;;;;;;;;;5095798;28;20278;-49
2021/01/12 02:09:01;;;;;;;6.00;5.07;;;;;;;;;;5093391;28;20224;-51
2021/01/12 02:11:30;;;;;;;6.75;5.15;;;;;;;;;;5090084;28;20624;-53
2021/01/12 02:14:25;;;;;;;6.55;4.57;;;;;;;;;;5094644;28;20193;-49
2021/01/12 02:16:58;;;;;;;6.65;4.78;;;;;;;;;;5090038;28;20191;-49
2021/01/12 02:19:41;;;;;;;6.13;4.53;;;;;;;;;;5095717;28;20324;-55
2021/01/12 02:22:11;;;;;;;4.50;3.38;;;;;;;;;;5095631;28;20230;-52
2021/01/12 02:24:40;;;;;;;6.57;3.40;;;;;;;;;;5095063;28;20189;-54
2021/01/12 02:27:11;;;;;;;4.65;3.40;;;;;;;;;;5094865;28;20228;-49
2021/01/12 02:29:38;;;;;;;5.38;3.35;;;;;;;;;;5093911;28;20270;-53
2021/01/12 02:32:15;;;;;;;4.35;3.30;;;;;;;;;;5094678;28;20208;-54
2021/01/12 02:34:54;;;;;;;6.38;3.22;;;;;;;;;;5098184;28;20232;-54
2021/01/12 02:37:25;;;;;;;4.18;2.67;;;;;;;;;;5114109;28;20285;-54
2021/01/12 02:40:14;;;;;;;3.60;2.90;;;;;;;;;;5113778;28;20222;-54
2021/01/12 02:45:35;;;;;;;3.75;2.80;;;;;;;;;;5096214;28;20411;-57
2021/01/12 02:48:02;;;;;;;4.82;3.03;;;;;;;;;;5094604;28;20225;-57
2021/01/12 02:50:36;;;;;;;4.60;3.60;;;;;;;;;;5095050;28;20185;-54
2021/01/12 02:53:03;;;;;;;3.15;2.20;;;;;;;;;;5095382;28;20269;-56
2021/01/12 02:55:30;;;;;;;4.45;3.80;;;;;;;;;;5099130;28;20200;-51
2021/01/12 02:57:57;;;;;;;4.43;2.10;;;;;;;;;;5114592;28;20200;-49
2021/01/12 03:00:25;;;;;;;4.18;2.75;;;;;;;;;;5116192;28;20199;-54
2021/01/12 03:02:56;;;;;;;3.38;2.13;;;;;;;;;;5113356;28;20199;-55
2021/01/12 03:05:24;;;;;;;3.10;2.25;;;;;;;;;;5113738;28;20193;-55
2021/01/12 03:07:55;;;;;;;3.03;2.30;;;;;;;;;;5113851;28;20236;-55
2021/01/12 03:10:22;;;;;;;4.47;2.60;;;;;;;;;;5114614;28;20215;-54
2021/01/12 03:12:50;;;;;;;2.95;2.20;;;;;;;;;;5113611;28;20196;-55
2021/01/12 03:15:21;;;;;;;2.60;1.90;;;;;;;;;;5107118;28;20193;-55
2021/01/12 03:17:53;;;;;;;2.85;1.90;;;;;;;;;;5115235;28;20216;-52
2021/01/12 03:20:36;;;;;;;2.40;1.60;;;;;;;;;;5116205;28;20215;-57
2021/01/12 03:23:03;;;;;;;3.28;1.90;;;;;;;;;;5112282;28;20206;-52
2021/01/12 03:25:29;;;;;;;2.67;1.40;;;;;;;;;;5115296;28;20209;-58
2021/01/12 03:28:19;;;;;;;2.85;1.67;;;;;;;;;;5115980;28;20215;-52
2021/01/12 03:30:54;;;;;;;3.20;1.70;;;;;;;;;;5113383;28;20262;-48
2021/01/12 03:33:22;;;;;;;2.58;1.73;;;;;;;;;;5109861;28;20221;-54
2021/01/12 03:38:48;;;;;;;2.72;1.85;;;;;;;;;;5082802;28;20190;-48
2021/01/12 03:41:14;;;;;;;3.35;2.03;;;;;;;;;;5089099;28;20207;-56
2021/01/12 03:43:42;;;;;;;3.80;1.50;;;;;;;;;;5091927;28;20201;-53
2021/01/12 03:46:25;;;;;;;1.80;1.35;;;;;;;;;;5072889;28;20198;-55
2021/01/12 03:48:52;;;;;;;2.05;1.30;;;;;;;;;;5089553;28;20206;-52
2021/01/12 03:51:26;;;;;;;2.70;1.42;;;;;;;;;;5105652;28;20239;-52
2021/01/12 03:54:01;;;;;;;2.30;1.30;;;;;;;;;;5094204;28;20203;-48
2021/01/12 03:56:31;;;;;;;2.30;1.38;;;;;;;;;;5101946;28;20329;-50
2021/01/12 03:59:12;;;;;;;2.47;1.10;;;;;;;;;;5103198;28;20208;-47
2021/01/12 04:01:53;;;;;;;2.00;1.10;;;;;;;;;;5096765;28;20243;-51
2021/01/12 04:04:25;;;;;;;2.40;1.40;;;;;;;;;;5114210;28;20192;-51
2021/01/12 04:07:04;;;;;;;2.20;1.42;;;;;;;;;;5113156;28;20210;-51
2021/01/12 04:09:42;;;;;;;3.63;1.30;;;;;;;;;;5109217;28;20196;-56
2021/01/12 04:12:13;;;;;;;2.20;1.40;;;;;;;;;;5091077;28;20212;-50
2021/01/12 04:14:50;;;;;;;2.17;1.20;;;;;;;;;;5091420;28;20207;-47
2021/01/12 04:17:18;;;;;;;2.35;1.08;;;;;;;;;;5083584;28;20209;-52
2021/01/12 04:20:04;;;;;;;2.75;1.35;;;;;;;;;;5093697;28;20201;-53
2021/01/12 04:22:40;;;;;;;1.85;0.90;;;;;;;;;;5087145;28;20251;-52
2021/01/12 04:25:16;;;;;;;1.83;0.90;;;;;;;;;;5084632;28;20197;-54
2021/01/12 04:27:43;;;;;;;1.90;1.08;;;;;;;;;;5076560;28;20243;-57
2021/01/12 04:30:15;;;;;;;7.63;2.60;;;;;;;;;;5092559;28;20211;-57
2021/01/12 04:33:19;;;;;;;2.50;1.25;;;;;;;;;;5093428;28;20196;-51
2021/01/12 04:35:48;;;;;;;2.72;1.10;;;;;;;;;;5090413;28;20224;-50
2021/01/12 04:38:33;;;;;;;1.95;1.00;;;;;;;;;;5093089;28;20213;-50
2021/01/12 04:41:05;;;;;;;3.22;1.25;;;;;;;;;;5093968;28;20212;-54
2021/01/12 04:43:32;;;;;;;2.20;1.20;;;;;;;;;;5093164;28;20188;-52
2021/01/12 04:46:01;;;;;;;1.70;0.80;;;;;;;;;;5092855;28;20193;-54
2021/01/12 04:48:29;;;;;;;2.13;1.20;;;;;;;;;;5087337;28;20221;-54
2021/01/12 04:51:12;;;;;;;1.60;0.90;;;;;;;;;;5093567;28;20201;-55
2021/01/12 04:53:46;;;;;;;5.75;1.40;;;;;;;;;;5095031;28;20246;-55
2021/01/12 04:56:13;;;;;;;3.28;1.23;;;;;;;;;;5095252;28;20212;-52
2021/01/12 04:58:55;;;;;;;2.20;1.20;;;;;;;;;;5094693;28;20205;-51
2021/01/12 05:01:23;;;;;;;2.85;1.45;;;;;;;;;;5094284;28;20208;-49
2021/01/12 05:03:54;;;;;;;2.33;1.25;;;;;;;;;;5092737;28;20241;-51
2021/01/12 05:06:22;;;;;;;2.42;1.10;;;;;;;;;;5094647;28;20491;-55
2021/01/12 05:08:55;;;;;;;2.10;1.13;;;;;;;;;;5093365;28;20239;-56
2021/01/12 05:11:22;;;;;;;2.53;1.55;;;;;;;;;;5095201;28;20256;-57
2021/01/12 05:13:53;;;;;;;2.78;1.20;;;;;;;;;;5094166;28;20201;-55
2021/01/12 05:16:32;;;;;;;1.90;0.98;;;;;;;;;;5095373;28;20208;-58
2021/01/12 05:19:00;;;;;;;4.40;1.27;;;;;;;;;;5083384;28;20201;-53
2021/01/12 05:21:37;;;;;;;3.00;1.35;;;;;;;;;;5115606;28;20191;-54
2021/01/12 05:24:05;;;;;;;4.05;1.85;;;;;;;;;;5109410;28;20292;-54
2021/01/12 05:26:36;;;;;;;6.68;1.48;;;;;;;;;;5098220;28;20215;-53
2021/01/12 05:31:51;;;;;;;3.47;1.58;;;;;;;;;;5078100;28;20414;-53
2021/01/12 05:34:26;;;;;;;2.25;1.25;;;;;;;;;;5055875;28;20300;-56
2021/01/12 05:37:00;;;;;;;3.25;1.30;;;;;;;;;;5037154;28;20310;-57
2021/01/12 05:39:30;;;;;;;4.20;1.27;;;;;;;;;;5052870;28;20214;-56
2021/01/12 05:42:18;;;;;;;2.95;1.40;;;;;;;;;;5063826;28;20225;-50
2021/01/12 05:44:50;;;;;;;7.15;1.55;;;;;;;;;;5059289;28;20195;-47
2021/01/12 05:47:20;;;;;;;2.03;1.00;;;;;;;;;;5058328;28;20450;-52
2021/01/12 05:49:54;;;;;;;3.17;1.52;;;;;;;;;;5075206;28;20248;-54
2021/01/12 05:52:26;;;;;;;4.45;2.50;;;;;;;;;;5056552;28;20179;-50
2021/01/12 05:55:02;;;;;;;2.75;1.10;;;;;;;;;;5056971;28;20210;-49
2021/01/12 05:57:31;;;;;;;2.42;1.50;;;;;;;;;;5056341;28;20296;-55
2021/01/12 06:00:04;;;;;;;2.13;1.15;;;;;;;;;;5065091;28;20380;-52
2021/01/12 06:02:32;;;;;;;2.35;1.20;;;;;;;;;;5076430;28;20221;-55
2021/01/12 06:05:00;;;;;;;2.45;1.10;;;;;;;;;;5076463;28;20250;-52
2021/01/12 06:07:45;;;;;;;2.50;1.38;;;;;;;;;;5076001;28;20240;-54
2021/01/12 06:13:12;;;;;;;2.22;1.00;;;;;;;;;;5076642;28;20194;-52
2021/01/12 06:15:46;;;;;;;2.10;1.10;;;;;;;;;;5076344;28;20242;-52
2021/01/12 06:18:20;;;;;;;2.35;1.65;;;;;;;;;;5076857;28;20206;-51
2021/01/12 06:21:18;;;;;;;2.20;0.98;;;;;;;;;;5075928;28;20198;-49
2021/01/12 06:23:55;;;;;;;2.40;1.10;;;;;;;;;;5076359;28;20222;-56
2021/01/12 06:26:25;;;;;;;2.92;1.20;;;;;;;;;;5076174;28;20278;-51
2021/01/12 06:28:56;;;;;;;5.53;1.10;;;;;;;;;;5085914;28;20232;-54
2021/01/12 06:34:16;;;;;;;2.88;1.30;;;;;;;;;;5078643;28;20196;-51
2021/01/12 06:37:02;;;;;;;2.95;1.05;;;;;;;;;;5097100;28;20193;-58
2021/01/12 06:39:44;;;;;;;3.35;1.10;;;;;;;;;;5090565;28;20217;-49
2021/01/12 06:42:30;;;;;;;2.35;1.20;;;;;;;;;;5086293;28;20191;-54
2021/01/12 06:45:13;;;;;;;1.40;0.70;;;;;;;;;;5089811;28;20240;-55
2021/01/12 06:47:44;;;;;;;2.50;0.88;;;;;;;;;;5063599;28;20261;-55
2021/01/12 06:50:13;;;;;;;2.28;1.02;;;;;;;;;;5116792;28;20217;-51
2021/01/12 06:52:41;;;;;;;5.35;1.40;;;;;;;;;;5116133;28;20202;-57
2021/01/12 06:55:09;;;;;;;3.45;1.15;;;;;;;;;;5116473;28;20240;-54
2021/01/12 06:57:38;;;;;;;4.68;2.85;;;;;;;;;;5102484;28;20224;-52
2021/01/12 07:00:06;;;;;;;2.83;1.30;;;;;;;;;;5075818;28;20198;-51
2021/01/12 07:02:45;;;;;;;2.30;1.00;;;;;;;;;;5074515;28;20232;-50
2021/01/12 07:05:21;;;;;;;4.35;2.15;;;;;;;;;;5075265;28;20186;-51
2021/01/12 07:07:49;;;;;;;2.03;0.90;;;;;;;;;;5075516;28;20243;-57
2021/01/12 07:10:23;;;;;;;1.95;1.08;;;;;;;;;;5075558;28;20194;-50
2021/01/12 07:12:50;;;;;;;1.88;0.80;;;;;;;;;;5071112;28;20209;-49
2021/01/12 07:15:18;;;;;;;7.35;1.30;;;;;;;;;;5075611;28;20212;-52
2021/01/12 07:17:55;;;;;;;1.98;0.80;;;;;;;;;;5075857;28;20211;-53
2021/01/12 07:20:23;;;;;;;1.80;0.80;;;;;;;;;;5074206;28;20192;-54
2021/01/12 07:22:57;;;;;;;1.70;0.85;;;;;;;;;;5074740;28;20203;-57
2021/01/12 07:25:28;;;;;;;2.10;1.00;;;;;;;;;;5074457;28;20223;-52
2021/01/12 07:28:04;;;;;;;1.85;0.90;;;;;;;;;;5074102;28;20223;-59
2021/01/12 07:30:52;;;;;;;2.00;1.10;;;;;;;;;;5074747;28;20203;-52
2021/01/12 07:33:20;;;;;;;2.20;1.30;;;;;;;;;;5074366;28;20273;-51
2021/01/12 07:35:51;;;;;;;2.00;1.20;;;;;;;;;;5074675;28;20208;-58
2021/01/12 07:38:36;;;;;;;2.72;1.23;;;;;;;;;;5072273;28;20245;-53
2021/01/12 07:41:04;;;;;;;2.38;0.90;;;;;;;;;;5073468;28;20200;-49
2021/01/12 07:43:44;;;;;;;1.40;0.80;;;;;;;;;;5073469;28;20194;-53
2021/01/12 07:46:12;;;;;;;2.58;1.20;;;;;;;;;;5065930;28;20194;-49
2021/01/12 07:48:46;;;;;;;2.22;1.02;;;;;;;;;;5073787;28;20237;-57
2021/01/12 07:51:18;;;;;;;3.28;1.20;;;;;;;;;;5072862;28;20265;-54
2021/01/12 07:53:48;;;;;;;3.03;0.82;;;;;;;;;;5073558;28;20201;-51
2021/01/12 07:56:34;;;;;;;1.70;0.75;;;;;;;;;;5071258;28;20236;-55
2021/01/12 07:59:12;;;;;;;2.45;1.30;;;;;;;;;;5074967;28;20194;-49
2021/01/12 08:01:41;;;;;;;3.90;1.15;;;;;;;;;;5093363;28;20288;-55
2021/01/12 08:04:17;;;;;;;5.30;1.23;;;;;;;;;;5093504;28;20270;-55
2021/01/12 08:06:48;;;;;;;2.47;1.13;;;;;;;;;;5094209;28;20212;-51
2021/01/12 08:09:21;;;;;;;3.10;1.30;;;;;;;;;;5092983;28;20232;-54
2021/01/12 08:11:51;;;;;;;2.53;1.65;;;;;;;;;;5072620;28;20202;-54
2021/01/12 08:14:33;;;;;;;3.20;1.05;;;;;;;;;;5086151;28;20222;-55
2021/01/12 08:17:06;;;;;;;2.15;1.00;;;;;;;;;;5094201;28;20209;-55
2021/01/12 08:19:37;;;;;;;5.00;1.52;;;;;;;;;;5091927;28;20395;-51
2021/01/12 08:22:16;;;;;;;1.92;0.77;;;;;;;;;;5093201;28;20201;-51
2021/01/12 08:24:51;;;;;;;2.75;1.50;;;;;;;;;;5093931;28;20209;-52
2021/01/12 08:27:20;;;;;;;2.22;1.05;;;;;;;;;;5093944;28;20232;-54
2021/01/12 08:29:51;;;;;;;3.60;2.00;;;;;;;;;;5083798;28;20195;-53
2021/01/12 08:32:26;;;;;;;3.15;1.20;;;;;;;;;;5084074;28;20220;-56
2021/01/12 08:35:03;;;;;;;1.70;0.90;;;;;;;;;;5092858;28;20266;-56
2021/01/12 08:37:31;;;;;;;6.47;2.20;;;;;;;;;;5069214;28;20466;-59
2021/01/12 08:40:04;;;;;;;1.98;0.95;;;;;;;;;;5072542;28;20219;-50
2021/01/12 08:42:32;;;;;;;2.85;1.30;;;;;;;;;;5071652;28;20200;-54
2021/01/12 08:45:10;;;;;;;5.35;3.25;;;;;;;;;;5055797;28;20529;-55
2021/01/12 08:47:37;;;;;;;3.22;1.50;;;;;;;;;;5067064;28;20234;-57
2021/01/12 08:50:14;;;;;;;5.22;2.42;;;;;;;;;;5093167;28;20207;-48
2021/01/12 08:52:46;;;;;;;5.53;2.55;;;;;;;;;;5086800;28;20199;-52
2021/01/12 08:55:30;;;;;;;3.42;1.75;;;;;;;;;;5094199;28;20191;-47
2021/01/12 08:57:58;;;;;;;3.80;2.08;;;;;;;;;;5097656;28;20211;-43
2021/01/12 09:00:40;;;;;;;5.40;2.47;;;;;;;;;;5097895;28;20209;-52
2021/01/12 09:03:09;;;;;;;5.75;3.67;;;;;;;;;;5091111;28;20196;-52
2021/01/12 09:05:38;;;;;;;11.55;2.10;;;;;;;;;;5097930;28;20256;-51
2021/01/12 09:08:07;;;;;;;5.35;2.50;;;;;;;;;;5097051;28;20541;-52
2021/01/12 09:10:38;;;;;;;5.00;3.47;;;;;;;;;;5097127;28;20198;-53
2021/01/12 09:15:51;;;;;;;5.90;2.50;;;;;;;;;;5093970;28;20257;-48
2021/01/12 09:18:23;;;;;;;36.85;6.65;;;;;;;;;;5096358;28;20191;-46
2021/01/12 09:20:56;;;;;;;7.72;2.53;;;;;;;;;;5094089;28;20231;-47
2021/01/12 09:23:24;;;;;;;3.17;1.70;;;;;;;;;;5096543;28;20603;-50
2021/01/12 09:25:52;;;;;;;6.03;2.38;;;;;;;;;;5096966;28;20212;-57
2021/01/12 09:28:31;;;;;;;5.00;2.35;;;;;;;;;;5097204;28;20220;-51
2021/01/12 09:31:09;;;;;;;3.45;2.38;;;;;;;;;;5096647;28;20207;-50
2021/01/12 09:33:37;;;;;;;4.57;2.10;;;;;;;;;;5097691;28;20222;-51
2021/01/12 09:36:05;;;;;;;4.60;1.25;;;;;;;;;;5096616;28;20197;-55
2021/01/12 09:38:51;;;;;;;3.30;1.23;;;;;;;;;;5094007;28;20193;-53
2021/01/12 09:41:28;;;;;;;6.50;2.10;;;;;;;;;;5095484;28;20207;-52
2021/01/12 09:43:57;;;;;;;2.92;1.60;;;;;;;;;;5092371;28;20185;-48
2021/01/12 09:46:49;;;;;;;2.78;1.58;;;;;;;;;;5096136;28;20180;-55
2021/01/12 09:49:18;;;;;;;2.60;1.30;;;;;;;;;;5095529;28;20212;-53
2021/01/12 09:51:52;;;;;;;3.38;1.65;;;;;;;;;;5096338;28;20203;-52
2021/01/12 09:54:19;;;;;;;2.70;1.85;;;;;;;;;;5092376;28;20206;-53
2021/01/12 09:56:45;;;;;;;4.47;2.20;;;;;;;;;;5095863;28;20271;-52
2021/01/12 09:59:17;;;;;;;4.22;2.20;;;;;;;;;;5094987;28;20189;-54
2021/01/12 10:07:48;;;;;;;4.10;2.15;;;;;;;;;;5025344;28;20222;-54
2021/01/12 10:10:28;;;;;;;9.63;1.85;;;;;;;;;;5088960;28;20235;-49
2021/01/12 10:12:58;;;;;;;3.33;2.10;;;;;;;;;;5096383;28;20255;-55
2021/01/12 10:15:27;;;;;;;3.65;2.20;;;;;;;;;;5088751;28;20338;-52
2021/01/12 10:20:41;;;;;;;5.72;2.35;;;;;;;;;;5092970;28;20234;-46
2021/01/12 10:23:09;;;;;;;4.35;2.55;;;;;;;;;;5094827;28;20196;-57
2021/01/12 10:25:37;;;;;;;4.50;2.00;;;;;;;;;;5094219;28;20197;-56
2021/01/12 10:28:07;;;;;;;2.53;1.60;;;;;;;;;;5093235;28;20218;-52
2021/01/12 10:30:59;;;;;;;5.32;3.42;;;;;;;;;;5070911;28;20224;-51
2021/01/12 10:33:26;;;;;;;4.40;3.28;;;;;;;;;;5087477;28;20205;-55
2021/01/12 10:36:10;;;;;;;6.22;4.60;;;;;;;;;;5095587;28;20203;-45
2021/01/12 10:38:44;;;;;;;2.90;2.00;;;;;;;;;;5093869;28;20226;-54
2021/01/12 10:41:14;;;;;;;5.30;2.88;;;;;;;;;;5093990;28;20202;-56
2021/01/12 10:43:50;;;;;;;3.40;2.50;;;;;;;;;;5080308;28;20204;-54
2021/01/12 10:46:27;;;;;;;11.95;3.28;;;;;;;;;;5088560;28;20188;-51
2021/01/12 10:48:55;;;;;;;5.63;2.65;;;;;;;;;;5078160;28;20258;-52
2021/01/12 10:51:22;;;;;;;5.15;2.88;;;;;;;;;;5081176;28;20242;-55
2021/01/12 10:53:50;;;;;;;4.20;1.95;;;;;;;;;;5094526;28;20237;-56
2021/01/12 10:56:25;;;;;;;2.72;1.77;;;;;;;;;;5094421;28;20209;-54
2021/01/12 10:58:54;;;;;;;5.57;1.92;;;;;;;;;;5094570;28;20199;-53
2021/01/12 11:01:23;;;;;;;5.60;2.30;;;;;;;;;;5092668;28;20200;-55
2021/01/12 11:03:58;;;;;;;4.72;1.80;;;;;;;;;;5094568;28;20203;-53
2021/01/12 11:06:42;;;;;;;3.65;2.10;;;;;;;;;;5094854;28;20218;-49
2021/01/12 11:09:19;;;;;;;4.20;1.83;;;;;;;;;;5094197;28;20223;-56
2021/01/12 11:12:16;;;;;;;3.78;2.20;;;;;;;;;;5093259;28;20200;-57
2021/01/12 11:14:53;;;;;;;4.35;2.38;;;;;;;;;;5092457;28;20274;-56
2021/01/12 11:17:20;;;;;;;6.28;2.15;;;;;;;;;;5090450;28;20316;-48
2021/01/12 11:19:56;;;;;;;4.93;3.33;;;;;;;;;;5092865;28;20223;-48
2021/01/12 11:22:27;;;;;;;3.97;2.90;;;;;;;;;;5073948;28;20327;-53
2021/01/12 11:25:14;;;;;;;3.80;2.97;;;;;;;;;;5073273;28;20210;-54
2021/01/12 11:27:47;;;;;;;5.55;3.28;;;;;;;;;;5074311;28;20231;-56
2021/01/12 11:30:19;;;;;;;5.00;3.15;;;;;;;;;;5070390;28;20233;-57
2021/01/12 11:32:58;;;;;;;7.57;3.60;;;;;;;;;;5056446;28;20237;-54
2021/01/12 11:35:44;;;;;;;6.65;4.05;;;;;;;;;;5072710;28;20279;-50
2021/01/12 11:38:11;;;;;;;5.90;4.20;;;;;;;;;;5072011;28;20195;-54
2021/01/12 11:40:53;;;;;;;6.55;3.38;;;;;;;;;;5073389;28;20199;-54
2021/01/12 11:43:35;;;;;;;7.80;4.20;;;;;;;;;;5084855;28;20237;-53
2021/01/12 11:46:11;;;;;;;8.70;3.13;;;;;;;;;;5072622;28;20229;-56
2021/01/12 11:48:59;;;;;;;4.40;2.97;;;;;;;;;;5072207;28;20251;-56
2021/01/12 11:51:39;;;;;;;5.00;3.00;;;;;;;;;;5071214;28;20215;-50
2021/01/12 11:54:06;;;;;;;4.57;3.28;;;;;;;;;;5073462;28;20200;-54
2021/01/12 11:56:37;;;;;;;3.85;2.30;;;;;;;;;;5072650;28;20264;-54
2021/01/12 11:59:08;;;;;;;5.35;1.80;;;;;;;;;;5072583;28;20198;-49
2021/01/12 12:01:45;;;;;;;6.53;3.17;;;;;;;;;;5072185;28;20218;-49
2021/01/12 12:04:22;;;;;;;3.83;3.15;;;;;;;;;;5073894;28;20218;-54
2021/01/12 12:06:50;;;;;;;5.35;2.95;;;;;;;;;;5089445;28;20213;-52
2021/01/12 12:09:19;;;;;;;7.53;3.72;;;;;;;;;;5093878;28;20247;-50
2021/01/12 12:11:47;;;;;;;6.75;4.00;;;;;;;;;;5094239;28;20185;-51
2021/01/12 12:14:14;;;;;;;7.05;4.80;;;;;;;;;;5094390;28;20219;-51
2021/01/12 12:16:48;;;;;;;6.13;4.28;;;;;;;;;;5094632;28;20196;-54
2021/01/12 12:19:31;;;;;;;5.05;3.92;;;;;;;;;;5076162;28;20207;-50
2021/01/12 12:22:29;;;;;;;5.72;3.45;;;;;;;;;;5082840;28;20205;-52
2021/01/12 12:25:02;;;;;;;6.53;3.72;;;;;;;;;;5073730;28;20221;-53
2021/01/12 12:27:31;;;;;;;4.13;2.75;;;;;;;;;;5082093;28;20248;-50
2021/01/12 12:29:59;;;;;;;4.05;2.60;;;;;;;;;;5093454;28;20250;-54
2021/01/12 12:32:33;;;;;;;6.55;3.97;;;;;;;;;;5094740;28;20197;-47
2021/01/12 12:35:19;;;;;;;4.68;2.88;;;;;;;;;;5088617;28;20241;-52
2021/01/12 12:37:48;;;;;;;3.00;1.95;;;;;;;;;;5100951;28;20211;-51
2021/01/12 12:40:20;;;;;;;2.55;1.75;;;;;;;;;;5086237;28;20205;-49
2021/01/12 12:42:54;;;;;;;4.68;2.17;;;;;;;;;;5082161;28;20210;-54
2021/01/12 12:45:42;;;;;;;4.93;2.30;;;;;;;;;;5118667;28;20242;-48
2021/01/12 12:48:20;;;;;;;3.80;2.28;;;;;;;;;;5107756;28;20228;-54
2021/01/12 12:50:50;;;;;;;3.47;2.10;;;;;;;;;;5120174;28;20196;-55
2021/01/12 12:53:30;;;;;;;4.07;1.83;;;;;;;;;;5120745;28;20506;-47
2021/01/12 12:55:57;;;;;;;10.13;1.90;;;;;;;;;;5120674;28;20184;-49
2021/01/12 12:58:25;;;;;;;3.78;1.95;;;;;;;;;;5116976;28;20206;-55
2021/01/12 13:00:59;;;;;;;3.00;1.85;;;;;;;;;;5108536;28;20273;-55
2021/01/12 13:03:28;;;;;;;2.70;1.30;;;;;;;;;;5111890;28;20191;-58
2021/01/12 13:06:03;;;;;;;3.35;1.33;;;;;;;;;;5107259;28;20216;-59
2021/01/12 13:08:45;;;;;;;6.38;1.90;;;;;;;;;;5119422;28;20431;-53
2021/01/12 13:11:14;;;;;;;2.70;1.38;;;;;;;;;;5107198;28;20224;-57
2021/01/12 13:13:43;;;;;;;2.97;1.50;;;;;;;;;;5100144;28;20203;-56
2021/01/12 13:16:10;;;;;;;4.22;1.50;;;;;;;;;;5097200;28;20386;-54
2021/01/12 13:18:42;;;;;;;4.55;2.00;;;;;;;;;;5082114;28;20207;-56
2021/01/12 13:21:10;;;;;;;7.38;1.63;;;;;;;;;;5084186;28;20194;-52
2021/01/12 13:23:39;;;;;;;2.70;1.55;;;;;;;;;;5119617;28;20285;-57
2021/01/12 13:26:08;;;;;;;4.13;1.60;;;;;;;;;;5118776;28;20490;-54
2021/01/12 13:31:44;;;;;;;2.53;1.23;;;;;;;;;;5101463;28;20197;-54
2021/01/12 13:37:03;;;;;;;2.45;1.63;;;;;;;;;;5095325;28;20227;-54
2021/01/12 13:39:31;;;;;;;5.20;1.75;;;;;;;;;;5095963;28;20228;-52
2021/01/12 13:42:05;;;;;;;1.80;1.13;;;;;;;;;;5099083;28;20201;-52
2021/01/12 13:45:00;;;;;;;2.45;1.00;;;;;;;;;;5092927;28;20207;-56
2021/01/12 13:47:30;;;;;;;2.60;1.08;;;;;;;;;;5088577;28;20227;-56
2021/01/12 13:50:12;;;;;;;2.15;0.90;;;;;;;;;;5095294;28;20241;-50
2021/01/12 13:52:39;;;;;;;6.10;1.08;;;;;;;;;;5087827;28;20300;-57
2021/01/12 13:55:17;;;;;;;1.88;1.02;;;;;;;;;;5076842;28;20197;-53
2021/01/12 13:58:10;;;;;;;2.08;0.70;;;;;;;;;;5076642;28;20223;-49
2021/01/12 14:00:38;;;;;;;2.33;0.82;;;;;;;;;;5057994;28;20197;-56
2021/01/12 14:03:16;;;;;;;2.38;0.85;;;;;;;;;;5076239;28;20214;-51
2021/01/12 14:05:44;;;;;;;7.20;0.80;;;;;;;;;;5072748;28;20206;-47
2021/01/12 14:08:12;;;;;;;3.97;1.45;;;;;;;;;;5072645;28;20212;-48
2021/01/12 14:10:39;;;;;;;4.80;1.50;;;;;;;;;;5055522;28;20211;-55
2021/01/12 14:13:13;;;;;;;3.38;1.48;;;;;;;;;;5076925;28;20257;-50
2021/01/12 14:15:54;;;;;;;4.40;1.65;;;;;;;;;;5077006;28;20206;-56
2021/01/12 14:18:23;;;;;;;3.15;1.70;;;;;;;;;;5076100;28;20232;-56
2021/01/12 14:20:52;;;;;;;4.25;1.50;;;;;;;;;;5075198;28;20216;-56
2021/01/12 14:23:31;;;;;;;3.90;1.23;;;;;;;;;;5077327;28;20202;-54
2021/01/12 14:25:59;;;;;;;3.30;1.10;;;;;;;;;;5089891;28;20230;-50
2021/01/12 14:28:40;;;;;;;1.90;0.90;;;;;;;;;;5089425;28;20292;-56
2021/01/12 14:31:16;;;;;;;3.22;1.67;;;;;;;;;;5095816;28;20215;-51
2021/01/12 14:33:44;;;;;;;4.43;1.27;;;;;;;;;;5083035;28;20193;-52
2021/01/12 14:36:43;;;;;;;5.40;1.25;;;;;;;;;;5079698;28;20220;-53
2021/01/12 14:39:30;;;;;;;4.00;1.30;;;;;;;;;;5077228;28;20206;-58
2021/01/12 14:42:06;;;;;;;2.85;1.15;;;;;;;;;;5075890;28;20181;-57
2021/01/12 14:44:36;;;;;;;4.75;1.25;;;;;;;;;;5075498;28;20215;-52
2021/01/12 14:47:39;;;;;;;3.40;0.93;;;;;;;;;;5073688;28;20200;-51
2021/01/12 14:50:07;;;;;;;4.00;1.70;;;;;;;;;;5075657;28;20193;-52
2021/01/12 14:52:36;;;;;;;5.00;1.13;;;;;;;;;;5075675;28;20197;-50
2021/01/12 14:55:15;;;;;;;2.42;1.30;;;;;;;;;;5100063;28;20253;-50
2021/01/12 14:57:42;;;;;;;3.67;1.90;;;;;;;;;;5120997;28;20497;-50
2021/01/12 15:00:11;;;;;;;8.45;1.63;;;;;;;;;;5116102;28;20224;-53
2021/01/12 15:02:58;;;;;;;6.18;1.38;;;;;;;;;;5115497;28;20237;-57
2021/01/12 15:05:29;;;;;;;8.30;1.40;;;;;;;;;;5110205;28;20224;-53
2021/01/12 15:07:59;;;;;;;4.55;2.03;;;;;;;;;;5095399;28;20213;-50
2021/01/12 15:13:48;;;;;;;10.60;4.78;;;;;;;;;;5093840;28;20252;-56
2021/01/12 15:16:17;;;;;;;10.60;3.72;;;;;;;;;;5101043;22;20446;-49
2021/01/12 15:18:45;;;;;;;6.68;3.30;;;;;;;;;;5072719;28;20197;-52
2021/01/12 15:21:21;;;;;;;8.52;1.70;;;;;;;;;;5071358;28;20205;-59
2021/01/12 15:24:00;;;;;;;13.25;1.98;;;;;;;;;;5110919;28;20302;-54
2021/01/12 15:26:40;;;;;;;10.40;1.90;;;;;;;;;;5114480;28;20200;-59
2021/01/12 15:29:24;;;;;;;4.55;1.67;;;;;;;;;;5114324;28;20245;-55
2021/01/12 15:31:55;;;;;;;6.47;2.25;;;;;;;;;;5120721;28;20193;-59
2021/01/12 15:34:22;;;;;;;3.67;1.30;;;;;;;;;;5118509;28;20203;-57
2021/01/12 15:39:47;;;;;;;3.70;1.65;;;;;;;;;;5071994;28;20207;-55
2021/01/12 15:42:16;;;;;;;5.95;1.60;;;;;;;;;;5112768;28;20215;-56
2021/01/12 15:48:05;;;;;;;4.70;2.60;;;;;;;;;;5109764;28;20219;-50
2021/01/12 15:50:54;;;;;;;4.25;1.40;;;;;;;;;;5092713;28;20218;-51
2021/01/12 15:53:21;;;;;;;9.15;3.92;;;;;;;;;;5093812;28;20197;-56
2021/01/12 15:56:22;;;;;;;8.68;1.50;;;;;;;;;;5110099;28;20219;-56
2021/01/12 15:58:54;;;;;;;6.30;1.77;;;;;;;;;;5115387;28;20222;-53
2021/01/12 16:01:21;;;;;;;7.00;2.72;;;;;;;;;;5103893;28;20223;-50
2021/01/12 16:04:11;;;;;;;6.60;2.63;;;;;;;;;;5110681;28;20211;-56
2021/01/12 16:06:41;;;;;;;4.38;1.15;;;;;;;;;;5100512;28;20520;-51